Time;durP1;ratioP1;P1;durP2;ratioP2;P2;SDS_P1;SDS_P2;PMS_P1;PMS_P2;Temp;Humidity;BMP_temperature;BMP_pressure;BME280_temperature;BME280_humidity;BME280_pressure;Samples;Min_cycle;Max_cycle;Signal;HPM_P1;HPM_P2
2023/08/25 00:02:20;;;;;;;2.33;1.50;;;17.70;99.90;;;;;;5093343;28;20078;-61
2023/08/25 00:04:46;;;;;;;1.15;1.05;;;19.20;99.90;;;;;;5093463;28;20404;-62
2023/08/25 00:07:11;;;;;;;2.83;2.08;;;18.10;99.90;;;;;;5093173;28;20063;-62
2023/08/25 00:09:37;;;;;;;4.05;2.40;;;18.90;99.90;;;;;;5093298;28;20075;-61
2023/08/25 00:12:03;;;;;;;3.45;2.08;;;18.50;99.90;;;;;;5093642;28;20063;-62
2023/08/25 00:14:29;;;;;;;3.05;2.03;;;19.10;99.90;;;;;;5092322;28;20052;-62
2023/08/25 00:16:55;;;;;;;6.28;2.17;;;18.00;99.90;;;;;;5093381;28;20048;-63
2023/08/25 00:19:21;;;;;;;1.65;1.50;;;18.90;99.90;;;;;;5093253;28;20393;-63
2023/08/25 00:21:46;;;;;;;2.30;2.10;;;19.10;99.90;;;;;;5093412;28;20077;-62
2023/08/25 00:24:12;;;;;;;1.98;1.27;;;17.60;99.90;;;;;;5093252;28;20040;-62
2023/08/25 00:26:39;;;;;;;2.05;1.88;;;18.10;99.90;;;;;;5093126;28;20084;-61
2023/08/25 00:29:06;;;;;;;0.93;0.93;;;18.60;99.90;;;;;;5093060;28;20056;-62
2023/08/25 00:31:31;;;;;;;3.53;1.80;;;18.50;99.90;;;;;;5091666;28;20126;-62
2023/08/25 00:33:58;;;;;;;3.30;1.60;;;17.70;99.90;;;;;;5093278;28;20169;-62
2023/08/25 00:36:24;;;;;;;0.98;0.95;;;17.90;99.90;;;;;;5093042;28;20484;-61
2023/08/25 00:38:51;;;;;;;1.25;1.15;;;17.90;99.90;;;;;;5092869;28;20511;-62
2023/08/25 00:41:17;;;;;;;1.20;1.10;;;17.60;99.90;;;;;;5093294;28;20048;-62
2023/08/25 00:43:43;;;;;;;2.90;1.85;;;18.10;99.90;;;;;;5093176;28;20560;-62
2023/08/25 00:46:10;;;;;;;2.67;2.08;;;17.50;99.90;;;;;;5093047;28;20044;-61
2023/08/25 00:48:37;;;;;;;1.48;1.15;;;17.70;99.90;;;;;;5092954;28;20055;-62
2023/08/25 00:51:05;;;;;;;1.48;1.05;;;17.30;99.90;;;;;;5092820;28;20051;-62
2023/08/25 00:53:34;;;;;;;4.28;2.35;;;17.90;99.90;;;;;;5092987;28;20044;-61
2023/08/25 00:56:01;;;;;;;2.90;1.42;;;17.50;99.90;;;;;;5092726;28;20121;-62
2023/08/25 00:58:27;;;;;;;4.45;1.67;;;18.30;99.90;;;;;;5092640;28;20155;-62
2023/08/25 01:00:54;;;;;;;2.35;1.77;;;19.10;99.90;;;;;;5092631;28;20134;-62
2023/08/25 01:03:20;;;;;;;3.90;2.50;;;17.70;99.90;;;;;;5092516;28;20047;-61
2023/08/25 01:05:48;;;;;;;3.05;2.72;;;18.90;99.90;;;;;;5092533;28;20545;-62
2023/08/25 01:08:18;;;;;;;5.97;2.13;;;19.20;99.90;;;;;;5092625;28;20059;-62
2023/08/25 01:11:03;;;;;;;3.92;1.95;;;18.80;99.90;;;;;;5092612;28;20055;-61
2023/08/25 01:13:34;;;;;;;2.22;2.03;;;17.70;99.90;;;;;;5092514;28;20415;-62
2023/08/25 01:16:00;;;;;;;2.85;2.63;;;17.80;99.90;;;;;;5092229;28;20056;-62
2023/08/25 01:18:33;;;;;;;6.30;2.05;;;18.10;99.90;;;;;;5092292;28;20674;-62
2023/08/25 01:20:59;;;;;;;4.10;2.90;;;19.20;99.90;;;;;;5092395;28;20091;-64
2023/08/25 01:24:09;;;;;;;2.20;2.05;;;19.10;99.90;;;;;;5092155;28;20344;-62
2023/08/25 01:26:36;;;;;;;1.85;1.50;;;18.60;99.90;;;;;;5088065;28;20059;-62
2023/08/25 01:29:01;;;;;;;2.55;1.80;;;17.70;99.90;;;;;;5091634;28;20052;-63
2023/08/25 01:31:27;;;;;;;1.73;1.55;;;18.00;99.90;;;;;;5092205;28;20126;-62
2023/08/25 01:33:53;;;;;;;5.63;2.67;;;19.40;99.90;;;;;;5091593;28;20044;-62
2023/08/25 01:36:37;;;;;;;3.28;2.97;;;17.70;99.90;;;;;;5092085;28;20040;-61
2023/08/25 01:39:08;;;;;;;1.73;1.63;;;18.20;99.90;;;;;;5092123;28;20052;-62
2023/08/25 01:41:37;;;;;;;5.80;2.53;;;19.00;99.90;;;;;;5091739;28;20552;-61
2023/08/25 01:44:05;;;;;;;2.35;2.15;;;19.60;99.90;;;;;;5090619;28;20059;-62
2023/08/25 01:46:33;;;;;;;4.13;2.92;;;18.30;99.90;;;;;;5092017;28;20055;-62
2023/08/25 01:49:00;;;;;;;3.45;2.45;;;19.50;99.90;;;;;;5092126;28;20083;-61
2023/08/25 01:51:28;;;;;;;3.97;3.58;;;18.90;99.90;;;;;;5091940;28;20044;-62
2023/08/25 01:53:55;;;;;;;5.95;4.07;;;19.80;99.90;;;;;;5091811;28;20044;-61
2023/08/25 01:56:21;;;;;;;2.47;2.28;;;18.80;99.90;;;;;;5091798;28;20058;-62
2023/08/25 01:58:47;;;;;;;2.47;1.65;;;19.40;99.90;;;;;;5091744;28;20113;-64
2023/08/25 02:01:13;;;;;;;3.03;2.67;;;18.90;99.90;;;;;;5091845;28;20142;-62
2023/08/25 02:03:39;;;;;;;5.40;3.75;;;18.20;99.90;;;;;;5091579;28;20443;-61
2023/08/25 02:06:04;;;;;;;3.78;2.70;;;19.60;99.90;;;;;;5091272;28;20116;-61
2023/08/25 02:08:30;;;;;;;2.05;1.85;;;18.50;99.90;;;;;;5091635;28;20048;-62
2023/08/25 02:10:56;;;;;;;2.20;1.67;;;19.80;99.90;;;;;;5091684;28;20048;-62
2023/08/25 02:13:22;;;;;;;3.42;2.22;;;18.40;99.90;;;;;;5091559;28;20125;-61
2023/08/25 02:15:49;;;;;;;4.68;2.63;;;18.50;99.90;;;;;;5091550;28;20044;-62
2023/08/25 02:18:15;;;;;;;3.50;2.90;;;18.30;99.90;;;;;;5091572;28;20044;-61
2023/08/25 02:20:40;;;;;;;3.35;2.17;;;18.60;99.90;;;;;;5091581;28;20541;-62
2023/08/25 02:23:07;;;;;;;9.30;2.88;;;19.20;99.90;;;;;;5091496;28;20071;-61
2023/08/25 02:25:33;;;;;;;3.58;2.15;;;19.10;99.90;;;;;;5091456;28;20048;-62
2023/08/25 02:27:59;;;;;;;5.68;3.85;;;18.50;99.90;;;;;;5091464;28;20062;-62
2023/08/25 02:30:24;;;;;;;3.28;1.90;;;18.10;99.90;;;;;;5091182;28;20052;-61
2023/08/25 02:32:50;;;;;;;3.50;2.97;;;17.80;99.90;;;;;;5091864;28;20040;-61
2023/08/25 02:35:16;;;;;;;1.40;1.00;;;19.20;99.90;;;;;;5091532;28;20056;-61
2023/08/25 02:38:05;;;;;;;2.15;1.95;;;19.20;99.90;;;;;;5091934;28;20043;-61
2023/08/25 02:40:32;;;;;;;3.80;2.05;;;18.40;99.90;;;;;;5093460;28;20104;-61
2023/08/25 02:43:02;;;;;;;5.60;2.38;;;19.80;99.90;;;;;;5094951;28;20500;-63
2023/08/25 02:45:28;;;;;;;1.75;1.65;;;18.60;99.90;;;;;;5094826;28;20075;-63
2023/08/25 02:47:54;;;;;;;2.50;2.30;;;18.80;99.90;;;;;;5094518;28;20451;-62
2023/08/25 02:50:21;;;;;;;1.73;1.33;;;19.40;99.90;;;;;;5095107;28;20078;-62
2023/08/25 02:52:47;;;;;;;1.73;1.60;;;19.40;99.90;;;;;;5094474;28;20046;-62
2023/08/25 02:55:16;;;;;;;2.67;2.13;;;17.70;99.90;;;;;;5094423;28;20124;-62
2023/08/25 02:57:46;;;;;;;4.97;2.40;;;18.00;99.90;;;;;;5095068;28;20083;-62
2023/08/25 03:00:14;;;;;;;1.45;1.35;;;19.20;99.90;;;;;;5095375;28;20138;-63
2023/08/25 03:02:40;;;;;;;4.90;3.58;;;18.40;99.90;;;;;;5093980;28;20091;-62
2023/08/25 03:05:06;;;;;;;2.22;1.95;;;18.60;99.90;;;;;;5095137;28;20488;-61
2023/08/25 03:07:34;;;;;;;2.45;2.25;;;17.70;99.90;;;;;;5094547;28;20056;-61
2023/08/25 03:10:00;;;;;;;3.15;1.77;;;17.80;99.90;;;;;;5094987;28;20056;-63
2023/08/25 03:12:29;;;;;;;7.15;2.67;;;19.50;99.90;;;;;;5095102;28;20044;-62
2023/08/25 03:14:55;;;;;;;3.17;1.95;;;19.70;99.90;;;;;;5095126;28;20054;-62
2023/08/25 03:17:22;;;;;;;3.50;2.15;;;19.50;99.90;;;;;;5095193;28;20130;-63
2023/08/25 03:19:48;;;;;;;1.30;1.23;;;18.80;99.90;;;;;;5094838;28;20105;-61
2023/08/25 03:22:15;;;;;;;4.15;2.08;;;19.40;99.90;;;;;;5094768;28;20063;-62
2023/08/25 03:24:40;;;;;;;3.58;2.83;;;19.50;99.90;;;;;;5094593;28;20055;-61
2023/08/25 03:27:06;;;;;;;5.43;2.60;;;19.10;99.90;;;;;;5094596;28;20051;-62
2023/08/25 03:29:32;;;;;;;3.97;2.50;;;18.20;99.90;;;;;;5094560;28;20090;-62
2023/08/25 03:31:58;;;;;;;5.25;2.13;;;19.30;99.90;;;;;;5094465;28;20040;-62
2023/08/25 03:34:24;;;;;;;2.20;2.00;;;18.20;99.90;;;;;;5094497;28;20122;-62
2023/08/25 03:36:50;;;;;;;1.73;1.42;;;18.20;99.90;;;;;;5094334;28;20055;-61
2023/08/25 03:39:15;;;;;;;1.48;1.38;;;18.80;99.90;;;;;;5094228;28;20048;-61
2023/08/25 03:41:41;;;;;;;1.02;1.02;;;19.00;99.90;;;;;;5093692;28;20059;-63
2023/08/25 03:44:07;;;;;;;0.93;0.90;;;19.30;99.90;;;;;;5093854;28;20044;-62
2023/08/25 03:46:33;;;;;;;3.38;1.92;;;19.10;99.90;;;;;;5094197;28;20035;-61
2023/08/25 03:48:59;;;;;;;7.55;1.88;;;19.50;99.90;;;;;;5093947;28;20097;-62
2023/08/25 03:51:25;;;;;;;1.63;1.50;;;19.10;99.90;;;;;;5093458;28;20051;-61
2023/08/25 03:53:50;;;;;;;3.72;1.30;;;18.00;99.90;;;;;;5093930;28;20044;-62
2023/08/25 03:56:16;;;;;;;3.63;1.73;;;17.80;99.90;;;;;;5093907;28;20048;-62
2023/08/25 03:58:42;;;;;;;0.82;0.55;;;18.80;99.90;;;;;;5093838;28;20040;-62
2023/08/25 04:01:08;;;;;;;1.83;1.60;;;18.80;99.90;;;;;;5093839;28;20060;-62
2023/08/25 04:03:34;;;;;;;5.93;2.67;;;17.90;99.90;;;;;;5093737;28;20052;-64
2023/08/25 04:06:00;;;;;;;3.15;2.33;;;18.00;99.90;;;;;;5093787;28;20066;-61
2023/08/25 04:08:25;;;;;;;5.47;1.48;;;18.40;99.90;;;;;;5093734;28;20098;-61
2023/08/25 04:10:52;;;;;;;2.85;1.17;;;18.60;99.90;;;;;;5093595;28;20060;-61
2023/08/25 04:13:18;;;;;;;4.28;1.52;;;18.10;99.90;;;;;;5093781;28;20073;-62
2023/08/25 04:15:44;;;;;;;1.00;0.98;;;19.40;99.90;;;;;;5093630;28;20058;-63
2023/08/25 04:18:09;;;;;;;4.65;2.28;;;18.80;99.90;;;;;;5093601;28;20048;-61
2023/08/25 04:20:35;;;;;;;6.15;2.35;;;19.50;99.90;;;;;;5093559;28;20069;-61
2023/08/25 04:23:02;;;;;;;5.20;1.73;;;17.80;99.90;;;;;;5093452;28;20048;-61
2023/08/25 04:25:29;;;;;;;1.65;1.38;;;17.70;99.90;;;;;;5093485;28;20157;-62
2023/08/25 04:27:56;;;;;;;6.28;1.92;;;18.00;99.90;;;;;;5093381;28;20132;-62
2023/08/25 04:30:25;;;;;;;5.93;2.20;;;19.20;99.90;;;;;;5093497;28;20043;-62
2023/08/25 04:32:51;;;;;;;1.60;0.88;;;19.80;99.90;;;;;;5093491;28;20043;-62
2023/08/25 04:35:17;;;;;;;4.60;2.05;;;19.70;99.90;;;;;;5093340;28;20044;-62
2023/08/25 04:37:47;;;;;;;4.63;1.80;;;17.90;99.90;;;;;;5093245;28;20077;-61
2023/08/25 04:40:14;;;;;;;1.50;1.35;;;18.20;99.90;;;;;;5093132;28;20055;-61
2023/08/25 04:42:40;;;;;;;2.28;1.85;;;19.10;99.90;;;;;;5093089;28;20135;-62
2023/08/25 04:45:07;;;;;;;4.47;1.83;;;18.50;99.90;;;;;;5092955;28;20051;-61
2023/08/25 04:47:32;;;;;;;1.25;0.93;;;18.70;99.90;;;;;;5092251;28;20069;-61
2023/08/25 04:50:02;;;;;;;4.20;1.67;;;18.80;99.90;;;;;;5092795;28;20051;-62
2023/08/25 04:52:28;;;;;;;4.10;1.45;;;19.90;99.90;;;;;;5092060;28;20050;-61
2023/08/25 04:54:53;;;;;;;3.72;2.33;;;19.10;99.90;;;;;;5092212;28;20146;-61
2023/08/25 04:57:19;;;;;;;0.95;0.90;;;19.70;99.90;;;;;;5092878;28;20092;-63
2023/08/25 04:59:45;;;;;;;0.80;0.80;;;19.60;99.90;;;;;;5092411;28;20059;-62
2023/08/25 05:02:10;;;;;;;0.80;0.73;;;18.30;99.90;;;;;;5091925;28;20048;-62
2023/08/25 05:04:36;;;;;;;1.40;1.08;;;18.40;99.90;;;;;;5091702;28;20040;-61
2023/08/25 05:07:02;;;;;;;0.50;0.50;;;19.40;99.90;;;;;;5091355;28;20060;-63
2023/08/25 05:09:28;;;;;;;0.95;0.73;;;19.50;99.90;;;;;;5092766;28;20109;-62
2023/08/25 05:11:53;;;;;;;2.63;1.75;;;18.70;99.90;;;;;;5092779;28;20048;-62
2023/08/25 05:14:19;;;;;;;1.85;1.48;;;18.00;99.90;;;;;;5092756;28;20066;-61
2023/08/25 05:16:45;;;;;;;1.95;1.77;;;18.50;99.90;;;;;;5092623;28;20052;-63
2023/08/25 05:19:12;;;;;;;2.03;1.55;;;18.20;99.90;;;;;;5092190;28;20048;-61
2023/08/25 05:21:37;;;;;;;1.25;1.02;;;17.80;99.90;;;;;;5092402;28;20416;-63
2023/08/25 05:24:18;;;;;;;2.42;2.03;;;19.90;99.90;;;;;;5092273;28;20051;-62
2023/08/25 05:26:44;;;;;;;3.33;1.77;;;19.60;99.90;;;;;;5092340;28;20044;-62
2023/08/25 05:29:10;;;;;;;1.55;1.13;;;18.40;99.90;;;;;;5092243;28;20138;-63
2023/08/25 05:31:35;;;;;;;1.17;1.08;;;19.50;99.90;;;;;;5092146;28;20138;-62
2023/08/25 05:34:01;;;;;;;0.82;0.82;;;19.40;99.90;;;;;;5092176;28;20507;-62
2023/08/25 05:36:27;;;;;;;1.25;0.73;;;18.00;99.90;;;;;;5092236;28;20044;-62
2023/08/25 05:38:54;;;;;;;0.60;0.60;;;19.20;99.90;;;;;;5091842;28;20054;-61
2023/08/25 05:41:19;;;;;;;1.33;1.00;;;19.30;99.90;;;;;;5092038;28;20048;-61
2023/08/25 05:43:45;;;;;;;0.73;0.73;;;18.20;99.90;;;;;;5091833;28;20043;-63
2023/08/25 05:46:10;;;;;;;1.73;1.40;;;18.20;99.90;;;;;;5091510;28;20055;-62
2023/08/25 05:48:36;;;;;;;5.53;3.33;;;19.10;99.90;;;;;;5091651;28;20139;-62
2023/08/25 05:51:02;;;;;;;1.10;1.02;;;17.90;99.90;;;;;;5091929;28;20083;-62
2023/08/25 05:53:28;;;;;;;1.13;1.00;;;18.20;99.90;;;;;;5091852;28;20040;-61
2023/08/25 05:55:53;;;;;;;1.08;0.88;;;19.50;99.90;;;;;;5091796;28;20169;-61
2023/08/25 05:58:19;;;;;;;0.47;0.40;;;19.50;99.90;;;;;;5091648;28;20052;-62
2023/08/25 06:00:45;;;;;;;0.68;0.65;;;19.50;99.90;;;;;;5091774;28;20085;-62
2023/08/25 06:03:10;;;;;;;1.60;1.23;;;19.70;99.90;;;;;;5091748;28;20047;-62
2023/08/25 06:05:36;;;;;;;1.50;1.25;;;19.40;99.90;;;;;;5091746;28;20122;-61
2023/08/25 06:08:02;;;;;;;4.47;1.23;;;18.40;99.90;;;;;;5091893;28;20078;-64
2023/08/25 06:10:27;;;;;;;0.43;0.43;;;19.10;99.90;;;;;;5089832;28;20051;-65
2023/08/25 06:12:53;;;;;;;0.73;0.70;;;18.70;99.90;;;;;;5085986;28;20040;-62
2023/08/25 06:15:18;;;;;;;1.92;1.35;;;19.30;99.90;;;;;;5089916;28;20051;-62
2023/08/25 06:17:44;;;;;;;0.30;0.30;;;18.20;99.90;;;;;;5093880;28;20071;-62
2023/08/25 06:20:12;;;;;;;0.80;0.80;;;18.40;99.90;;;;;;5094308;28;20048;-62
2023/08/25 06:22:38;;;;;;;0.32;0.32;;;19.50;99.90;;;;;;5111590;28;20143;-63
2023/08/25 06:25:04;;;;;;;0.10;0.10;;;19.80;99.90;;;;;;5111401;28;20475;-62
2023/08/25 06:27:31;;;;;;;0.20;0.20;;;18.70;99.90;;;;;;5109812;28;20086;-61
2023/08/25 06:29:56;;;;;;;0.30;0.30;;;18.20;99.90;;;;;;5111425;28;20134;-63
2023/08/25 06:32:23;;;;;;;0.20;0.20;;;18.70;99.90;;;;;;5111710;28;20146;-62
2023/08/25 06:34:51;;;;;;;0.65;0.65;;;18.70;99.90;;;;;;5111328;28;20129;-62
2023/08/25 06:37:17;;;;;;;0.60;0.57;;;19.30;99.90;;;;;;5111684;28;20055;-62
2023/08/25 06:39:45;;;;;;;0.65;0.30;;;18.30;99.90;;;;;;5111516;28;20108;-62
2023/08/25 06:42:11;;;;;;;0.00;0.00;;;19.90;99.90;;;;;;5110389;28;20063;-61
2023/08/25 06:44:37;;;;;;;0.30;0.30;;;19.70;99.90;;;;;;5111154;28;20072;-64
2023/08/25 06:47:03;;;;;;;0.60;0.60;;;20.20;99.90;;;;;;5110906;28;20059;-62
2023/08/25 06:49:29;;;;;;;0.30;0.30;;;20.10;99.90;;;;;;5110854;28;20050;-61
2023/08/25 06:51:54;;;;;;;0.35;0.35;;;19.00;99.90;;;;;;5111301;28;20122;-62
2023/08/25 06:54:21;;;;;;;0.30;0.30;;;20.30;99.90;;;;;;5111450;28;20044;-62
2023/08/25 06:56:47;;;;;;;0.80;0.80;;;19.90;99.90;;;;;;5110521;28;20079;-62
2023/08/25 06:59:14;;;;;;;0.10;0.10;;;19.90;99.90;;;;;;5111303;28;20086;-62
2023/08/25 07:01:40;;;;;;;0.52;0.45;;;18.90;99.90;;;;;;5110959;28;20456;-61
2023/08/25 07:04:06;;;;;;;2.95;1.02;;;19.90;99.90;;;;;;5110796;28;20065;-61
2023/08/25 07:06:31;;;;;;;0.28;0.28;;;19.50;99.90;;;;;;5110827;28;20480;-62
2023/08/25 07:08:57;;;;;;;1.02;0.77;;;20.10;99.90;;;;;;5090253;28;20052;-62
2023/08/25 07:11:26;;;;;;;0.55;0.55;;;19.40;99.90;;;;;;5081145;28;20044;-61
2023/08/25 07:13:52;;;;;;;0.20;0.20;;;19.20;99.90;;;;;;5090793;28;20097;-62
2023/08/25 07:16:17;;;;;;;0.40;0.40;;;19.90;99.90;;;;;;5090920;28;20040;-62
2023/08/25 07:18:43;;;;;;;0.50;0.35;;;19.40;99.90;;;;;;5090921;28;20051;-61
2023/08/25 07:21:10;;;;;;;1.48;1.38;;;19.90;99.90;;;;;;5090722;28;20127;-61
2023/08/25 07:23:36;;;;;;;0.50;0.50;;;19.80;99.90;;;;;;5090755;28;20036;-61
2023/08/25 07:26:02;;;;;;;0.38;0.38;;;20.30;99.90;;;;;;5089890;28;20051;-62
2023/08/25 07:28:27;;;;;;;1.45;0.88;;;19.70;99.90;;;;;;5093462;28;20455;-61
2023/08/25 07:30:53;;;;;;;0.50;0.50;;;20.20;99.90;;;;;;5094384;28;20048;-61
2023/08/25 07:33:19;;;;;;;0.50;0.50;;;19.90;99.90;;;;;;5093559;28;20062;-64
2023/08/25 07:35:46;;;;;;;0.32;0.28;;;19.70;99.90;;;;;;5092486;28;20555;-63
2023/08/25 07:38:12;;;;;;;0.30;0.30;;;19.70;99.90;;;;;;5092625;28;20052;-61
2023/08/25 07:40:38;;;;;;;0.30;0.30;;;20.00;99.90;;;;;;5093364;28;20093;-60
2023/08/25 07:43:04;;;;;;;1.42;0.75;;;20.30;99.90;;;;;;5093720;28;20047;-62
2023/08/25 07:45:30;;;;;;;0.35;0.22;;;20.30;99.90;;;;;;5094128;28;20058;-61
2023/08/25 07:47:59;;;;;;;0.88;0.77;;;20.30;99.90;;;;;;5093883;28;20051;-61
2023/08/25 07:50:26;;;;;;;0.68;0.52;;;20.60;99.90;;;;;;5093404;28;20120;-61
2023/08/25 07:52:52;;;;;;;0.75;0.63;;;20.50;99.90;;;;;;5094066;28;20052;-62
2023/08/25 07:55:18;;;;;;;0.80;0.80;;;20.10;99.90;;;;;;5094056;28;20082;-61
2023/08/25 07:57:46;;;;;;;0.47;0.45;;;20.60;99.90;;;;;;5093625;28;20058;-61
2023/08/25 08:00:15;;;;;;;0.30;0.30;;;20.60;99.90;;;;;;5094003;28;20055;-63
2023/08/25 08:02:46;;;;;;;1.13;1.08;;;20.40;99.90;;;;;;5093825;28;20127;-63
2023/08/25 08:05:12;;;;;;;1.55;1.35;;;20.70;99.90;;;;;;5094183;28;20044;-62
2023/08/25 08:07:38;;;;;;;0.75;0.68;;;20.90;99.90;;;;;;5093616;28;20056;-62
2023/08/25 08:10:05;;;;;;;2.03;1.48;;;20.30;99.90;;;;;;5093636;28;20511;-61
2023/08/25 08:12:31;;;;;;;1.38;1.27;;;20.60;99.90;;;;;;5093727;28;20051;-61
2023/08/25 08:14:57;;;;;;;8.70;1.38;;;20.90;99.90;;;;;;5093745;28;20545;-63
2023/08/25 08:17:23;;;;;;;0.85;0.85;;;20.60;99.90;;;;;;5093072;28;20400;-62
2023/08/25 08:19:48;;;;;;;1.77;0.93;;;20.40;99.90;;;;;;5093202;28;20046;-61
2023/08/25 08:22:14;;;;;;;0.57;0.25;;;21.00;99.90;;;;;;5093652;28;20071;-62
2023/08/25 08:24:47;;;;;;;1.73;0.47;;;20.80;99.90;;;;;;5093476;28;20373;-61
2023/08/25 08:27:15;;;;;;;0.50;0.50;;;20.90;99.90;;;;;;5093383;28;20044;-62
2023/08/25 08:29:41;;;;;;;0.57;0.57;;;20.50;99.90;;;;;;5093615;28;20048;-61
2023/08/25 08:32:07;;;;;;;1.15;1.05;;;20.50;99.90;;;;;;5093483;28;20515;-62
2023/08/25 08:34:33;;;;;;;0.60;0.60;;;20.80;99.90;;;;;;5092418;28;20083;-63
2023/08/25 08:36:59;;;;;;;2.20;1.55;;;20.60;99.90;;;;;;5093308;28;20079;-61
2023/08/25 08:39:25;;;;;;;2.47;1.70;;;21.10;99.90;;;;;;5093220;28;20051;-62
2023/08/25 08:41:52;;;;;;;0.93;0.90;;;21.00;99.90;;;;;;5093097;28;20044;-61
2023/08/25 08:44:19;;;;;;;1.17;0.95;;;20.80;99.90;;;;;;5092847;28;20051;-61
2023/08/25 08:46:47;;;;;;;1.13;1.08;;;21.00;99.90;;;;;;5093054;28;20055;-62
2023/08/25 08:49:14;;;;;;;0.70;0.70;;;20.50;99.90;;;;;;5093032;28;20126;-62
2023/08/25 08:51:42;;;;;;;1.30;1.17;;;20.70;99.90;;;;;;5092878;28;20063;-61
2023/08/25 08:54:08;;;;;;;0.88;0.88;;;20.40;99.90;;;;;;5092768;28;20081;-62
2023/08/25 08:56:34;;;;;;;1.70;1.60;;;20.60;99.90;;;;;;5092776;28;20082;-61
2023/08/25 08:59:03;;;;;;;1.52;1.42;;;20.60;99.90;;;;;;5092762;28;20152;-61
2023/08/25 09:01:31;;;;;;;2.03;1.08;;;20.50;99.90;;;;;;5092636;28;20048;-62
2023/08/25 09:04:00;;;;;;;12.70;1.83;;;20.40;99.90;;;;;;5092545;28;20044;-61
2023/08/25 09:06:31;;;;;;;5.18;1.75;;;20.70;99.90;;;;;;5092293;28;20156;-61
2023/08/25 09:09:04;;;;;;;2.78;1.27;;;20.40;99.90;;;;;;5092548;28;20063;-61
2023/08/25 09:11:29;;;;;;;0.90;0.90;;;20.00;99.90;;;;;;5092670;28;20047;-62
2023/08/25 09:13:57;;;;;;;2.28;0.52;;;20.80;99.90;;;;;;5092221;28;20044;-61
2023/08/25 09:16:23;;;;;;;1.20;1.10;;;20.40;99.90;;;;;;5092465;28;20052;-62
2023/08/25 09:18:49;;;;;;;1.17;0.85;;;20.50;99.90;;;;;;5092397;28;20143;-63
2023/08/25 09:21:17;;;;;;;2.85;0.73;;;20.70;99.90;;;;;;5092378;28;20123;-62
2023/08/25 09:23:55;;;;;;;0.80;0.80;;;20.90;99.90;;;;;;5092126;28;20040;-63
2023/08/25 09:26:22;;;;;;;0.73;0.73;;;20.90;99.90;;;;;;5092405;28;20047;-61
2023/08/25 09:28:50;;;;;;;1.38;1.02;;;21.40;99.90;;;;;;5092237;28;20044;-63
2023/08/25 09:31:29;;;;;;;2.85;1.30;;;21.20;99.90;;;;;;5092162;28;20051;-62
2023/08/25 09:34:02;;;;;;;1.25;1.15;;;21.50;99.90;;;;;;5092213;28;20040;-64
2023/08/25 09:36:29;;;;;;;0.68;0.68;;;21.90;99.90;;;;;;5092096;28;20059;-63
2023/08/25 09:38:55;;;;;;;1.50;1.25;;;21.70;99.90;;;;;;5092085;28;20039;-63
2023/08/25 09:41:29;;;;;;;2.38;1.35;;;22.10;99.90;;;;;;5090650;28;20048;-62
2023/08/25 09:43:59;;;;;;;0.30;0.30;;;21.60;99.90;;;;;;5091911;28;20191;-61
2023/08/25 09:46:33;;;;;;;0.95;0.68;;;22.00;99.90;;;;;;5091982;28;20040;-62
2023/08/25 09:49:09;;;;;;;0.65;0.65;;;21.90;99.90;;;;;;5091454;28;20044;-62
2023/08/25 09:51:35;;;;;;;;;;;21.60;99.90;;;;;;5092257;28;20140;-62
2023/08/25 09:54:06;;;;;;;0.63;0.63;;;21.60;99.90;;;;;;5091812;28;19997;-62
2023/08/25 09:56:34;;;;;;;1.42;1.15;;;21.70;99.90;;;;;;5091881;28;20400;-62
2023/08/25 09:59:02;;;;;;;0.40;0.40;;;21.40;99.90;;;;;;5092015;28;20047;-63
2023/08/25 10:01:27;;;;;;;2.25;1.45;;;21.70;99.90;;;;;;5091744;28;20429;-62
2023/08/25 10:03:54;;;;;;;0.40;0.30;;;21.40;99.90;;;;;;5091584;28;20044;-63
2023/08/25 10:06:21;;;;;;;0.85;0.85;;;21.30;99.90;;;;;;5091683;28;20054;-61
2023/08/25 10:08:48;;;;;;;0.75;0.40;;;21.50;99.90;;;;;;5091559;28;20066;-61
2023/08/25 10:11:16;;;;;;;0.65;0.65;;;21.50;99.90;;;;;;5091607;28;20055;-63
2023/08/25 10:13:44;;;;;;;1.83;1.73;;;21.00;99.90;;;;;;5090239;28;20403;-62
2023/08/25 10:16:11;;;;;;;0.55;0.55;;;21.10;99.90;;;;;;5091276;28;20052;-61
2023/08/25 10:18:43;;;;;;;2.65;0.85;;;20.90;99.90;;;;;;5091276;28;20048;-62
2023/08/25 10:21:12;;;;;;;4.55;0.98;;;21.10;99.90;;;;;;5091472;28;20063;-62
2023/08/25 10:23:39;;;;;;;2.25;1.40;;;20.60;99.90;;;;;;5091324;28;20051;-62
2023/08/25 10:26:05;;;;;;;0.98;0.98;;;20.90;99.90;;;;;;5091456;28;20070;-63
2023/08/25 10:28:33;;;;;;;0.88;0.88;;;20.70;99.90;;;;;;5091506;28;20468;-62
2023/08/25 10:30:59;;;;;;;0.60;0.60;;;20.60;99.90;;;;;;5091229;28;20051;-62
2023/08/25 10:33:25;;;;;;;1.38;0.77;;;20.60;99.90;;;;;;5089785;28;20036;-61
2023/08/25 10:35:53;;;;;;;0.32;0.32;;;20.30;99.90;;;;;;5090735;28;20109;-63
2023/08/25 10:38:19;;;;;;;0.55;0.55;;;19.50;99.90;;;;;;5090723;28;20052;-62
2023/08/25 10:40:55;;;;;;;4.53;1.85;;;20.60;99.90;;;;;;5090643;28;20051;-62
2023/08/25 10:43:31;;;;;;;0.68;0.68;;;20.60;99.90;;;;;;5090400;28;20040;-63
2023/08/25 10:45:56;;;;;;;0.73;0.73;;;20.90;99.90;;;;;;5090630;28;20048;-63
2023/08/25 10:48:25;;;;;;;1.80;1.65;;;20.60;99.90;;;;;;5090518;28;20192;-62
2023/08/25 10:51:19;;;;;;;0.60;0.60;;;20.80;99.90;;;;;;5091016;28;20079;-62
2023/08/25 10:53:52;;;;;;;1.00;0.80;;;21.00;99.90;;;;;;5087686;28;20520;-62
2023/08/25 10:56:18;;;;;;;0.65;0.50;;;21.00;99.90;;;;;;5091081;28;20047;-62
2023/08/25 10:59:12;;;;;;;1.48;1.38;;;20.60;99.90;;;;;;5091306;28;20078;-63
2023/08/25 11:01:37;;;;;;;1.70;1.60;;;21.30;99.90;;;;;;5091809;28;20134;-61
2023/08/25 11:04:34;;;;;;;4.15;1.23;;;20.90;99.90;;;;;;5094886;28;20054;-64
2023/08/25 11:06:59;;;;;;;0.90;0.90;;;21.20;99.90;;;;;;5090605;28;20068;-62
2023/08/25 11:09:31;;;;;;;2.20;1.63;;;21.40;99.90;;;;;;5094881;28;20188;-62
2023/08/25 11:11:59;;;;;;;0.88;0.85;;;21.90;99.90;;;;;;5095030;28;20048;-62
2023/08/25 11:14:29;;;;;;;3.28;1.35;;;22.20;99.90;;;;;;5094932;28;20048;-62
2023/08/25 11:16:56;;;;;;;9.98;1.00;;;22.40;99.90;;;;;;5094853;28;20085;-62
2023/08/25 11:19:24;;;;;;;6.95;2.17;;;22.70;99.90;;;;;;5094844;28;20048;-62
2023/08/25 11:22:03;;;;;;;0.40;0.40;;;22.30;99.90;;;;;;5094892;28;20064;-62
2023/08/25 11:24:30;;;;;;;0.82;0.63;;;22.40;99.90;;;;;;5094952;28;20047;-63
2023/08/25 11:27:16;;;;;;;0.95;0.82;;;22.90;99.90;;;;;;5094833;28;20048;-62
2023/08/25 11:29:45;;;;;;;0.82;0.82;;;22.50;99.90;;;;;;5094970;28;20048;-62
2023/08/25 11:32:15;;;;;;;1.55;1.23;;;23.30;99.90;;;;;;5094766;28;20105;-62
2023/08/25 11:34:45;;;;;;;1.10;1.00;;;23.40;99.90;;;;;;5094847;28;20044;-62
2023/08/25 11:37:13;;;;;;;1.33;1.23;;;23.30;99.90;;;;;;5094744;28;20048;-62
2023/08/25 11:39:43;;;;;;;0.82;0.82;;;23.00;99.90;;;;;;5094574;28;20044;-61
2023/08/25 11:42:09;;;;;;;1.10;1.05;;;23.40;99.90;;;;;;5094672;28;20083;-62
2023/08/25 11:44:40;;;;;;;1.15;1.08;;;23.30;99.90;;;;;;5094626;28;20083;-63
2023/08/25 11:47:06;;;;;;;1.38;1.27;;;23.30;99.90;;;;;;5094782;28;20052;-62
2023/08/25 11:49:33;;;;;;;1.27;1.05;;;22.70;99.90;;;;;;5094503;28;20040;-62
2023/08/25 11:52:00;;;;;;;1.30;1.20;;;23.00;99.90;;;;;;5094374;28;20066;-61
2023/08/25 11:54:26;;;;;;;0.95;0.75;;;22.80;99.90;;;;;;5094282;28;20040;-62
2023/08/25 11:56:52;;;;;;;4.25;1.25;;;22.70;99.90;;;;;;5093594;28;20156;-62
2023/08/25 11:59:21;;;;;;;0.70;0.70;;;22.80;99.90;;;;;;5094115;28;20123;-61
2023/08/25 12:01:49;;;;;;;0.60;0.60;;;22.20;99.90;;;;;;5094060;28;20040;-62
2023/08/25 12:04:23;;;;;;;0.43;0.43;;;21.60;99.90;;;;;;5093822;28;20058;-64
2023/08/25 12:06:57;;;;;;;1.33;0.93;;;22.00;99.90;;;;;;5093594;28;20058;-66
2023/08/25 12:09:25;;;;;;;1.35;0.95;;;22.00;99.90;;;;;;5093955;28;20090;-62
2023/08/25 12:11:53;;;;;;;0.85;0.85;;;21.50;99.90;;;;;;5093839;28;20095;-62
2023/08/25 12:14:27;;;;;;;1.60;1.02;;;21.70;99.90;;;;;;5093280;28;20092;-61
2023/08/25 12:16:54;;;;;;;1.08;0.70;;;21.50;99.90;;;;;;5092837;28;20055;-61
2023/08/25 12:19:28;;;;;;;3.17;1.35;;;21.40;99.90;;;;;;5093324;28;20048;-62
2023/08/25 12:21:56;;;;;;;1.40;1.30;;;21.70;99.90;;;;;;5092857;28;20052;-63
2023/08/25 12:24:23;;;;;;;2.05;1.55;;;21.30;99.90;;;;;;5092271;28;20483;-62
2023/08/25 12:26:49;;;;;;;0.82;0.82;;;21.20;99.90;;;;;;5092343;28;20113;-62
2023/08/25 12:29:15;;;;;;;2.88;2.05;;;21.20;99.90;;;;;;5092603;28;20062;-61
2023/08/25 12:31:41;;;;;;;2.30;1.73;;;21.00;99.90;;;;;;5092878;28;20480;-62
2023/08/25 12:34:07;;;;;;;2.30;2.05;;;20.90;99.90;;;;;;5093099;28;20051;-61
2023/08/25 12:36:35;;;;;;;0.93;0.93;;;20.90;99.90;;;;;;5093011;28;20048;-61
2023/08/25 12:39:03;;;;;;;2.63;1.05;;;20.60;99.90;;;;;;5092977;28;20097;-61
2023/08/25 12:41:29;;;;;;;1.05;1.05;;;20.50;99.90;;;;;;5092946;28;20048;-62
2023/08/25 12:43:55;;;;;;;2.53;1.65;;;20.70;99.90;;;;;;5092823;28;20044;-61
2023/08/25 12:46:22;;;;;;;1.67;1.52;;;20.30;99.90;;;;;;5091391;28;20056;-62
2023/08/25 12:48:48;;;;;;;1.35;0.50;;;20.70;99.90;;;;;;5092768;28;20055;-62
2023/08/25 12:51:15;;;;;;;1.30;1.20;;;20.30;99.90;;;;;;5092733;28;20040;-62